METAR AND TAF INFORMATION
METAR FOR LSGG
ADDS - METARS form results

(2316 UTC 21 April 2018)
Data provider http://aviationweather.gov/adds/metars/
 
METAR text: LSGG 212250Z AUTO VRB01KT CAVOK 14/09 Q1019 NOSIG
Conditions at: LSGG (GENEVA/COINTRIN , CH) observed 2250 UTC 21 April 2018
Temperature: 14.0°C (57°F)
Dewpoint: 9.0°C (48°F) [RH = 72%]
Pressure (altimeter): 30.09 inches Hg (1019.0 mb)
Winds: variable direction winds at 1 MPH (1 knots; 0.5 m/s)
Visibility: 6 or more miles (10+ km)
Ceiling: ceiling and visibility are OK
Clouds: unknown
Weather: no significant weather observed at this time

METAR text: LSGG 212220Z AUTO VRB01KT CAVOK 14/09 Q1019 NOSIG
Conditions at: LSGG (GENEVA/COINTRIN , CH) observed 2220 UTC 21 April 2018
Temperature: 14.0°C (57°F)
Dewpoint: 9.0°C (48°F) [RH = 72%]
Pressure (altimeter): 30.09 inches Hg (1019.0 mb)
Winds: variable direction winds at 1 MPH (1 knots; 0.5 m/s)
Visibility: 6 or more miles (10+ km)
Ceiling: ceiling and visibility are OK
Clouds: unknown
Weather: no significant weather observed at this time

Forecast for: LSGG (GENEVA/COINTRIN , CH)
Text: TAF LSGG 212025Z 2121/2303 VRB03KT CAVOK TX28/2215Z TN10/2206Z
Forecast period: 2100 UTC 21 April 2018 to 1000 UTC 22 April 2018
Forecast type: FROM: standard forecast or significant change
Winds: variable direction winds at 3 MPH (3 knots; 1.6 m/s)
Visibility: 6 or more miles (10+ km)
Clouds: not forecast
Weather: no significant weather forecast for this period
Forecast for: LSGG (GENEVA/COINTRIN , CH)
Text: TAF LSGG 212025Z 2121/2303 VRB03KT CAVOK TX28/2215Z TN10/2206Z
Forecast period: 2100 UTC 21 April 2018 to 1000 UTC 22 April 2018
Forecast type: FROM: standard forecast or significant change
Winds: variable direction winds at 3 MPH (3 knots; 1.6 m/s)
Visibility: 6 or more miles (10+ km)
Clouds: not forecast
Weather: no significant weather forecast for this period
Forecast for: LSGG (GENEVA/COINTRIN , CH)
Text: TAF LSGG 212025Z 2121/2303 VRB03KT CAVOK TX28/2215Z TN10/2206Z
Forecast period: 1000 to 1800 UTC 22 April 2018
Forecast type: BECOMING: Conditions expected to become as follows by 1200 UTC 22 April 2018
Winds: from the SW (220 degrees) at 12 MPH (10 knots; 5.2 m/s)
Visibility: 6 or more miles (10+ km)
Clouds: few clouds at 6000 feet AGL
Weather: no significant weather forecast for this period
Forecast for: LSGG (GENEVA/COINTRIN , CH)
Text: TAF LSGG 212025Z 2121/2303 VRB03KT CAVOK TX28/2215Z TN10/2206Z
Forecast period: 1000 to 1800 UTC 22 April 2018
Forecast type: BECOMING: Conditions expected to become as follows by 1200 UTC 22 April 2018
Winds: from the SW (220 degrees) at 12 MPH (10 knots; 5.2 m/s)
Visibility: 6 or more miles (10+ km)
Clouds: few clouds at 6000 feet AGL
Weather: no significant weather forecast for this period
Forecast for: LSGG (GENEVA/COINTRIN , CH)
Text: TAF LSGG 212025Z 2121/2303 VRB03KT CAVOK TX28/2215Z TN10/2206Z
Forecast period: 1800 UTC 22 April 2018 to 0300 UTC 23 April 2018
Forecast type: BECOMING: Conditions expected to become as follows by 2100 UTC 22 April 2018
Winds: variable direction winds at 3 MPH (3 knots; 1.6 m/s)
Visibility: 6 or more miles (10+ km)
Weather: NSW  (no significant weather)
Forecast for: LSGG (GENEVA/COINTRIN , CH)
Text: TAF LSGG 212025Z 2121/2303 VRB03KT CAVOK TX28/2215Z TN10/2206Z
Forecast period: 1800 UTC 22 April 2018 to 0300 UTC 23 April 2018
Forecast type: BECOMING: Conditions expected to become as follows by 2100 UTC 22 April 2018
Winds: variable direction winds at 3 MPH (3 knots; 1.6 m/s)
Visibility: 6 or more miles (10+ km)
Weather: NSW  (no significant weather)

 AIRPORT MAP

 RUNWAY INFORMATION
Runway 05 Runway length 12795 ft Runway width 164 ft
Runway elevation 1411 ft Runway displaced threshold 1082 ft Runway heading 46
Runway 23 Runway length 12795 ft Runway width 164 ft
Runway elevation 1365 ft Runway displaced threshold 0 ft Runway heading 226
Runway 05L Runway length 2700 ft Runway width 98 ft
Runway elevation 1378 ft Runway displaced threshold 613 ft Runway heading 46
Runway 23R Runway length 2700 ft Runway width 98 ft
Runway elevation 1393 ft Runway displaced threshold 994 ft Runway heading 226

 AIRPORT FREQUENCIES
Type APP Name APP Frequency 120.3 MHZ
Type ARR Name ARR Frequency 136.25 MHZ
Type ATIS Name ATIS Frequency 135.575 MHZ
Type DEP Name DEP Frequency 119.525 MHZ
Type GND Name GND Frequency 121.675 MHZ
Type GTE Name APN Frequency 121.75 MHZ
Type TWR Name TWR Frequency 118.7 MHZ

 AIRPORT NEAR NAVIGATION AIDS
Type NDB Name Gland Frequency 375 KHZ
Type VOR-DME Name Geneva Cointrin Frequency 115750 KHZ
Type VOR-DME Name Passeiry Frequency 116600 KHZ



© 2017-2018 LuxairVA.com | All Rights Reserved |